sensor_id;sensor_type;location;lat;lon;timestamp;temperature;humidity
51950;DHT22;37974;53.218;6.640;2023-03-23T00:00:51;10.10;99.90
51950;DHT22;37974;53.218;6.640;2023-03-23T00:03:17;10.10;99.90
51950;DHT22;37974;53.218;6.640;2023-03-23T00:05:44;10.10;99.90
51950;DHT22;37974;53.218;6.640;2023-03-23T00:08:17;10.10;99.90
51950;DHT22;37974;53.218;6.640;2023-03-23T00:10:43;10.20;99.90
51950;DHT22;37974;53.218;6.640;2023-03-23T00:13:08;10.30;99.90
51950;DHT22;37974;53.218;6.640;2023-03-23T00:15:43;10.30;99.90
51950;DHT22;37974;53.218;6.640;2023-03-23T00:18:09;10.40;99.90
51950;DHT22;37974;53.218;6.640;2023-03-23T00:20:47;10.40;99.90
51950;DHT22;37974;53.218;6.640;2023-03-23T00:23:15;10.50;99.90
51950;DHT22;37974;53.218;6.640;2023-03-23T00:25:47;10.50;99.90
51950;DHT22;37974;53.218;6.640;2023-03-23T00:28:30;10.50;99.90
51950;DHT22;37974;53.218;6.640;2023-03-23T00:31:04;10.90;99.90
51950;DHT22;37974;53.218;6.640;2023-03-23T00:33:58;10.60;99.90
51950;DHT22;37974;53.218;6.640;2023-03-23T00:36:30;10.70;99.90
51950;DHT22;37974;53.218;6.640;2023-03-23T00:39:02;10.70;99.90
51950;DHT22;37974;53.218;6.640;2023-03-23T00:41:31;10.60;99.90
51950;DHT22;37974;53.218;6.640;2023-03-23T00:43:59;10.70;99.90
51950;DHT22;37974;53.218;6.640;2023-03-23T00:46:27;10.60;99.90
51950;DHT22;37974;53.218;6.640;2023-03-23T00:48:54;10.60;99.90
51950;DHT22;37974;53.218;6.640;2023-03-23T00:51:31;10.30;99.90
51950;DHT22;37974;53.218;6.640;2023-03-23T00:54:03;10.60;99.90
51950;DHT22;37974;53.218;6.640;2023-03-23T00:56:28;10.60;99.90
51950;DHT22;37974;53.218;6.640;2023-03-23T00:59:04;10.60;99.90
51950;DHT22;37974;53.218;6.640;2023-03-23T01:01:37;10.60;99.90
51950;DHT22;37974;53.218;6.640;2023-03-23T01:04:12;10.30;99.90
51950;DHT22;37974;53.218;6.640;2023-03-23T01:06:39;10.70;99.90
51950;DHT22;37974;53.218;6.640;2023-03-23T01:09:11;10.60;99.90
51950;DHT22;37974;53.218;6.640;2023-03-23T01:11:47;10.70;99.90
51950;DHT22;37974;53.218;6.640;2023-03-23T01:14:22;10.50;99.90
51950;DHT22;37974;53.218;6.640;2023-03-23T01:16:47;10.40;99.90
51950;DHT22;37974;53.218;6.640;2023-03-23T01:19:13;10.30;99.90
51950;DHT22;37974;53.218;6.640;2023-03-23T01:21:47;10.30;99.90
51950;DHT22;37974;53.218;6.640;2023-03-23T01:24:21;10.30;99.90
51950;DHT22;37974;53.218;6.640;2023-03-23T01:26:55;10.30;99.90
51950;DHT22;37974;53.218;6.640;2023-03-23T01:29:20;10.20;99.90
51950;DHT22;37974;53.218;6.640;2023-03-23T01:31:46;10.20;99.90
51950;DHT22;37974;53.218;6.640;2023-03-23T01:34:15;10.10;99.90
51950;DHT22;37974;53.218;6.640;2023-03-23T01:36:50;10.10;99.90
51950;DHT22;37974;53.218;6.640;2023-03-23T01:39:16;10.10;99.90
51950;DHT22;37974;53.218;6.640;2023-03-23T01:41:42;10.20;99.90
51950;DHT22;37974;53.218;6.640;2023-03-23T01:46:56;10.20;99.90
51950;DHT22;37974;53.218;6.640;2023-03-23T01:49:34;10.20;99.90
51950;DHT22;37974;53.218;6.640;2023-03-23T01:52:05;10.20;99.90
51950;DHT22;37974;53.218;6.640;2023-03-23T01:54:34;10.30;99.90
51950;DHT22;37974;53.218;6.640;2023-03-23T01:57:06;10.30;99.90
51950;DHT22;37974;53.218;6.640;2023-03-23T01:59:33;10.40;99.90
51950;DHT22;37974;53.218;6.640;2023-03-23T02:02:00;10.40;99.90
51950;DHT22;37974;53.218;6.640;2023-03-23T02:04:29;10.50;99.90
51950;DHT22;37974;53.218;6.640;2023-03-23T02:06:56;10.50;99.90
51950;DHT22;37974;53.218;6.640;2023-03-23T02:09:24;10.60;99.90
51950;DHT22;37974;53.218;6.640;2023-03-23T02:11:51;10.60;99.90
51950;DHT22;37974;53.218;6.640;2023-03-23T02:14:18;10.50;99.90
51950;DHT22;37974;53.218;6.640;2023-03-23T02:27:26;10.60;99.90
51950;DHT22;37974;53.218;6.640;2023-03-23T02:33:19;10.70;99.90
51950;DHT22;37974;53.218;6.640;2023-03-23T02:36:00;10.70;99.90
51950;DHT22;37974;53.218;6.640;2023-03-23T02:38:35;10.80;99.90
51950;DHT22;37974;53.218;6.640;2023-03-23T02:41:03;10.80;99.90
51950;DHT22;37974;53.218;6.640;2023-03-23T02:43:33;10.80;99.90
51950;DHT22;37974;53.218;6.640;2023-03-23T02:46:00;10.80;99.90
51950;DHT22;37974;53.218;6.640;2023-03-23T02:48:29;10.80;99.90
51950;DHT22;37974;53.218;6.640;2023-03-23T02:50:56;10.80;99.90
51950;DHT22;37974;53.218;6.640;2023-03-23T02:53:24;10.80;99.90
51950;DHT22;37974;53.218;6.640;2023-03-23T02:55:53;10.80;99.90
51950;DHT22;37974;53.218;6.640;2023-03-23T02:58:21;10.80;99.90
51950;DHT22;37974;53.218;6.640;2023-03-23T03:00:49;10.80;99.90
51950;DHT22;37974;53.218;6.640;2023-03-23T03:03:17;10.80;99.90
51950;DHT22;37974;53.218;6.640;2023-03-23T03:10:55;10.80;99.90
51950;DHT22;37974;53.218;6.640;2023-03-23T03:13:33;10.90;99.90
51950;DHT22;37974;53.218;6.640;2023-03-23T03:16:06;10.90;99.90
51950;DHT22;37974;53.218;6.640;2023-03-23T03:18:44;10.80;99.90
51950;DHT22;37974;53.218;6.640;2023-03-23T03:21:13;10.80;99.90
51950;DHT22;37974;53.218;6.640;2023-03-23T03:23:42;10.80;99.90
51950;DHT22;37974;53.218;6.640;2023-03-23T03:26:11;10.90;99.90
51950;DHT22;37974;53.218;6.640;2023-03-23T03:28:38;10.80;99.90
51950;DHT22;37974;53.218;6.640;2023-03-23T03:31:05;10.80;99.90
51950;DHT22;37974;53.218;6.640;2023-03-23T03:33:32;10.80;99.90
51950;DHT22;37974;53.218;6.640;2023-03-23T03:36:02;10.80;99.90
51950;DHT22;37974;53.218;6.640;2023-03-23T03:38:29;10.70;99.90
51950;DHT22;37974;53.218;6.640;2023-03-23T03:40:56;10.70;99.90
51950;DHT22;37974;53.218;6.640;2023-03-23T03:43:21;10.70;99.90
51950;DHT22;37974;53.218;6.640;2023-03-23T03:45:47;10.70;99.90
51950;DHT22;37974;53.218;6.640;2023-03-23T03:48:13;10.70;99.90
51950;DHT22;37974;53.218;6.640;2023-03-23T03:50:39;10.70;99.90
51950;DHT22;37974;53.218;6.640;2023-03-23T03:53:06;10.70;99.90
51950;DHT22;37974;53.218;6.640;2023-03-23T03:55:32;10.70;99.90
51950;DHT22;37974;53.218;6.640;2023-03-23T03:58:07;10.70;99.90
51950;DHT22;37974;53.218;6.640;2023-03-23T04:00:43;10.70;99.90
51950;DHT22;37974;53.218;6.640;2023-03-23T04:03:21;10.60;99.90
51950;DHT22;37974;53.218;6.640;2023-03-23T04:05:52;10.60;99.90
51950;DHT22;37974;53.218;6.640;2023-03-23T04:08:18;10.50;99.90
51950;DHT22;37974;53.218;6.640;2023-03-23T04:10:44;10.50;99.90
51950;DHT22;37974;53.218;6.640;2023-03-23T04:13:16;10.40;99.90
51950;DHT22;37974;53.218;6.640;2023-03-23T04:15:46;10.30;99.90
51950;DHT22;37974;53.218;6.640;2023-03-23T04:18:18;10.30;99.90
51950;DHT22;37974;53.218;6.640;2023-03-23T04:20:46;10.30;99.90
51950;DHT22;37974;53.218;6.640;2023-03-23T04:23:14;10.20;99.90
51950;DHT22;37974;53.218;6.640;2023-03-23T04:26:00;10.10;99.90
51950;DHT22;37974;53.218;6.640;2023-03-23T04:28:29;10.00;99.90
51950;DHT22;37974;53.218;6.640;2023-03-23T04:31:05;9.90;99.90
51950;DHT22;37974;53.218;6.640;2023-03-23T04:33:30;9.80;99.90
51950;DHT22;37974;53.218;6.640;2023-03-23T04:36:19;9.90;99.90
51950;DHT22;37974;53.218;6.640;2023-03-23T04:38:45;9.80;99.90
51950;DHT22;37974;53.218;6.640;2023-03-23T04:41:23;9.80;99.90
51950;DHT22;37974;53.218;6.640;2023-03-23T04:43:50;9.80;99.90
51950;DHT22;37974;53.218;6.640;2023-03-23T04:46:18;9.90;99.90
51950;DHT22;37974;53.218;6.640;2023-03-23T04:48:44;9.80;99.90
51950;DHT22;37974;53.218;6.640;2023-03-23T04:51:11;9.80;99.90
51950;DHT22;37974;53.218;6.640;2023-03-23T04:53:37;9.70;99.90
51950;DHT22;37974;53.218;6.640;2023-03-23T04:56:03;9.70;99.90
51950;DHT22;37974;53.218;6.640;2023-03-23T04:58:29;9.70;99.90
51950;DHT22;37974;53.218;6.640;2023-03-23T05:00:59;9.70;99.90
51950;DHT22;37974;53.218;6.640;2023-03-23T05:03:26;9.70;99.90
51950;DHT22;37974;53.218;6.640;2023-03-23T05:05:52;9.70;99.90
51950;DHT22;37974;53.218;6.640;2023-03-23T05:08:21;9.70;99.90
51950;DHT22;37974;53.218;6.640;2023-03-23T05:10:54;9.70;99.90
51950;DHT22;37974;53.218;6.640;2023-03-23T05:13:20;9.70;99.90
51950;DHT22;37974;53.218;6.640;2023-03-23T05:15:46;9.70;99.90
51950;DHT22;37974;53.218;6.640;2023-03-23T05:18:12;9.70;99.90
51950;DHT22;37974;53.218;6.640;2023-03-23T05:20:38;9.70;99.90
51950;DHT22;37974;53.218;6.640;2023-03-23T05:23:05;9.80;99.90
51950;DHT22;37974;53.218;6.640;2023-03-23T05:25:31;9.70;99.90
51950;DHT22;37974;53.218;6.640;2023-03-23T05:28:02;9.80;99.90
51950;DHT22;37974;53.218;6.640;2023-03-23T05:30:29;9.80;99.90
51950;DHT22;37974;53.218;6.640;2023-03-23T05:32:55;10.00;99.90
51950;DHT22;37974;53.218;6.640;2023-03-23T05:35:21;10.00;99.90
51950;DHT22;37974;53.218;6.640;2023-03-23T05:37:48;10.00;99.90
51950;DHT22;37974;53.218;6.640;2023-03-23T05:40:14;10.10;99.90
51950;DHT22;37974;53.218;6.640;2023-03-23T05:42:41;10.10;99.90
51950;DHT22;37974;53.218;6.640;2023-03-23T05:45:08;10.10;99.90
51950;DHT22;37974;53.218;6.640;2023-03-23T05:50:22;10.10;99.90
51950;DHT22;37974;53.218;6.640;2023-03-23T05:52:48;10.20;99.90
51950;DHT22;37974;53.218;6.640;2023-03-23T05:55:14;10.10;99.90
51950;DHT22;37974;53.218;6.640;2023-03-23T05:57:40;10.10;99.90
51950;DHT22;37974;53.218;6.640;2023-03-23T06:00:06;10.10;99.90
51950;DHT22;37974;53.218;6.640;2023-03-23T06:02:40;10.10;99.90
51950;DHT22;37974;53.218;6.640;2023-03-23T06:05:12;10.10;99.90
51950;DHT22;37974;53.218;6.640;2023-03-23T06:07:39;10.10;99.90
51950;DHT22;37974;53.218;6.640;2023-03-23T06:10:05;10.10;99.90
51950;DHT22;37974;53.218;6.640;2023-03-23T06:12:32;10.10;99.90
51950;DHT22;37974;53.218;6.640;2023-03-23T06:14:58;10.10;99.90
51950;DHT22;37974;53.218;6.640;2023-03-23T06:17:26;10.10;99.90
51950;DHT22;37974;53.218;6.640;2023-03-23T06:19:52;10.10;99.90
51950;DHT22;37974;53.218;6.640;2023-03-23T06:22:18;10.30;99.90
51950;DHT22;37974;53.218;6.640;2023-03-23T06:24:44;10.20;99.90
51950;DHT22;37974;53.218;6.640;2023-03-23T06:27:10;10.20;99.90
51950;DHT22;37974;53.218;6.640;2023-03-23T06:29:36;10.20;99.90
51950;DHT22;37974;53.218;6.640;2023-03-23T06:32:04;10.30;99.90
51950;DHT22;37974;53.218;6.640;2023-03-23T06:34:30;10.30;99.90
51950;DHT22;37974;53.218;6.640;2023-03-23T06:36:57;10.30;99.90
51950;DHT22;37974;53.218;6.640;2023-03-23T06:39:22;10.30;99.90
51950;DHT22;37974;53.218;6.640;2023-03-23T06:41:49;10.30;99.90
51950;DHT22;37974;53.218;6.640;2023-03-23T06:44:15;10.30;99.90
51950;DHT22;37974;53.218;6.640;2023-03-23T06:46:41;10.30;99.90
51950;DHT22;37974;53.218;6.640;2023-03-23T06:49:07;10.30;99.90
51950;DHT22;37974;53.218;6.640;2023-03-23T06:51:34;10.20;99.90
51950;DHT22;37974;53.218;6.640;2023-03-23T06:53:59;10.10;99.90
51950;DHT22;37974;53.218;6.640;2023-03-23T06:56:25;10.10;99.90
51950;DHT22;37974;53.218;6.640;2023-03-23T06:58:51;10.00;99.90
51950;DHT22;37974;53.218;6.640;2023-03-23T07:01:18;10.00;99.90
51950;DHT22;37974;53.218;6.640;2023-03-23T07:03:43;10.00;99.90
51950;DHT22;37974;53.218;6.640;2023-03-23T07:06:10;9.90;99.90
51950;DHT22;37974;53.218;6.640;2023-03-23T07:08:36;9.90;99.90
51950;DHT22;37974;53.218;6.640;2023-03-23T07:11:02;9.90;99.90
51950;DHT22;37974;53.218;6.640;2023-03-23T07:13:28;9.90;99.90
51950;DHT22;37974;53.218;6.640;2023-03-23T07:15:54;9.80;99.90
51950;DHT22;37974;53.218;6.640;2023-03-23T07:18:20;9.90;99.90
51950;DHT22;37974;53.218;6.640;2023-03-23T07:20:48;9.90;99.90
51950;DHT22;37974;53.218;6.640;2023-03-23T07:23:15;9.90;99.90
51950;DHT22;37974;53.218;6.640;2023-03-23T07:25:40;10.00;99.90
51950;DHT22;37974;53.218;6.640;2023-03-23T07:28:06;10.10;99.90
51950;DHT22;37974;53.218;6.640;2023-03-23T07:30:32;10.10;99.90
51950;DHT22;37974;53.218;6.640;2023-03-23T07:32:58;10.20;99.90
51950;DHT22;37974;53.218;6.640;2023-03-23T07:35:24;10.20;99.90
51950;DHT22;37974;53.218;6.640;2023-03-23T07:37:51;10.30;99.90
51950;DHT22;37974;53.218;6.640;2023-03-23T07:40:18;10.30;99.90
51950;DHT22;37974;53.218;6.640;2023-03-23T07:42:45;10.50;99.90
51950;DHT22;37974;53.218;6.640;2023-03-23T07:45:12;10.50;99.90
51950;DHT22;37974;53.218;6.640;2023-03-23T07:47:39;10.60;99.90
51950;DHT22;37974;53.218;6.640;2023-03-23T07:50:06;10.60;99.90
51950;DHT22;37974;53.218;6.640;2023-03-23T07:52:33;10.70;99.90
51950;DHT22;37974;53.218;6.640;2023-03-23T07:54:59;10.70;99.90
51950;DHT22;37974;53.218;6.640;2023-03-23T07:57:27;10.70;99.90
51950;DHT22;37974;53.218;6.640;2023-03-23T07:59:53;10.80;99.90
51950;DHT22;37974;53.218;6.640;2023-03-23T08:02:19;10.90;99.90
51950;DHT22;37974;53.218;6.640;2023-03-23T08:04:45;11.00;99.90
51950;DHT22;37974;53.218;6.640;2023-03-23T08:07:11;11.00;99.90
51950;DHT22;37974;53.218;6.640;2023-03-23T08:09:38;11.00;99.90
51950;DHT22;37974;53.218;6.640;2023-03-23T08:12:04;11.10;99.90
51950;DHT22;37974;53.218;6.640;2023-03-23T08:14:30;11.10;99.90
51950;DHT22;37974;53.218;6.640;2023-03-23T08:16:56;11.10;99.90
51950;DHT22;37974;53.218;6.640;2023-03-23T08:19:23;11.00;99.90
51950;DHT22;37974;53.218;6.640;2023-03-23T08:21:49;11.00;99.90
51950;DHT22;37974;53.218;6.640;2023-03-23T08:24:15;11.00;99.90
51950;DHT22;37974;53.218;6.640;2023-03-23T08:26:41;11.00;99.90
51950;DHT22;37974;53.218;6.640;2023-03-23T08:29:08;11.10;99.90
51950;DHT22;37974;53.218;6.640;2023-03-23T08:31:34;11.10;99.90
51950;DHT22;37974;53.218;6.640;2023-03-23T08:34:01;11.10;99.90
51950;DHT22;37974;53.218;6.640;2023-03-23T08:36:27;11.10;99.90
51950;DHT22;37974;53.218;6.640;2023-03-23T08:38:54;11.10;99.90
51950;DHT22;37974;53.218;6.640;2023-03-23T08:41:19;11.10;99.90
51950;DHT22;37974;53.218;6.640;2023-03-23T08:43:51;11.10;99.90
51950;DHT22;37974;53.218;6.640;2023-03-23T08:46:28;11.20;99.90
51950;DHT22;37974;53.218;6.640;2023-03-23T08:48:54;11.30;99.90
51950;DHT22;37974;53.218;6.640;2023-03-23T08:51:20;11.30;99.90
51950;DHT22;37974;53.218;6.640;2023-03-23T08:53:45;11.30;99.90
51950;DHT22;37974;53.218;6.640;2023-03-23T08:56:11;11.40;99.90
51950;DHT22;37974;53.218;6.640;2023-03-23T08:58:39;11.50;99.90
51950;DHT22;37974;53.218;6.640;2023-03-23T09:01:06;11.60;99.90
51950;DHT22;37974;53.218;6.640;2023-03-23T09:03:33;11.70;99.90
51950;DHT22;37974;53.218;6.640;2023-03-23T09:06:03;11.90;99.90
51950;DHT22;37974;53.218;6.640;2023-03-23T09:08:29;12.00;99.90
51950;DHT22;37974;53.218;6.640;2023-03-23T09:10:59;12.10;99.90
51950;DHT22;37974;53.218;6.640;2023-03-23T09:13:25;12.20;99.90
51950;DHT22;37974;53.218;6.640;2023-03-23T09:15:51;12.20;99.90
51950;DHT22;37974;53.218;6.640;2023-03-23T09:18:18;12.20;99.90
51950;DHT22;37974;53.218;6.640;2023-03-23T09:20:45;12.20;99.90
51950;DHT22;37974;53.218;6.640;2023-03-23T09:23:11;12.20;99.90
51950;DHT22;37974;53.218;6.640;2023-03-23T09:25:39;12.30;99.90
51950;DHT22;37974;53.218;6.640;2023-03-23T09:28:04;12.50;99.90
51950;DHT22;37974;53.218;6.640;2023-03-23T09:30:32;12.60;99.90
51950;DHT22;37974;53.218;6.640;2023-03-23T09:33:00;12.80;99.90
51950;DHT22;37974;53.218;6.640;2023-03-23T09:35:27;12.80;99.90
51950;DHT22;37974;53.218;6.640;2023-03-23T09:37:53;12.80;99.90
51950;DHT22;37974;53.218;6.640;2023-03-23T09:40:23;12.70;99.90
51950;DHT22;37974;53.218;6.640;2023-03-23T09:45:41;12.60;99.90
51950;DHT22;37974;53.218;6.640;2023-03-23T09:50:55;12.60;99.90
51950;DHT22;37974;53.218;6.640;2023-03-23T09:53:33;12.50;99.90
51950;DHT22;37974;53.218;6.640;2023-03-23T09:56:02;12.50;99.90
51950;DHT22;37974;53.218;6.640;2023-03-23T09:58:35;12.60;99.90
51950;DHT22;37974;53.218;6.640;2023-03-23T10:01:04;12.80;99.90
51950;DHT22;37974;53.218;6.640;2023-03-23T10:03:36;12.90;99.90
51950;DHT22;37974;53.218;6.640;2023-03-23T10:06:03;13.10;99.90
51950;DHT22;37974;53.218;6.640;2023-03-23T10:08:31;13.20;99.90
51950;DHT22;37974;53.218;6.640;2023-03-23T10:11:18;13.30;99.90
51950;DHT22;37974;53.218;6.640;2023-03-23T10:16:39;13.30;99.90
51950;DHT22;37974;53.218;6.640;2023-03-23T10:19:29;13.20;99.90
51950;DHT22;37974;53.218;6.640;2023-03-23T10:22:04;13.10;99.90
51950;DHT22;37974;53.218;6.640;2023-03-23T10:24:50;13.00;99.90
51950;DHT22;37974;53.218;6.640;2023-03-23T10:27:19;12.90;99.90
51950;DHT22;37974;53.218;6.640;2023-03-23T10:29:55;13.00;99.90
51950;DHT22;37974;53.218;6.640;2023-03-23T10:32:38;13.10;99.90
51950;DHT22;37974;53.218;6.640;2023-03-23T10:35:09;13.20;99.90
51950;DHT22;37974;53.218;6.640;2023-03-23T10:37:40;13.40;99.90
51950;DHT22;37974;53.218;6.640;2023-03-23T10:40:19;13.50;99.90
51950;DHT22;37974;53.218;6.640;2023-03-23T10:42:46;13.50;99.90
51950;DHT22;37974;53.218;6.640;2023-03-23T10:45:18;13.40;99.90
51950;DHT22;37974;53.218;6.640;2023-03-23T10:47:54;13.10;99.90
51950;DHT22;37974;53.218;6.640;2023-03-23T10:50:26;13.00;99.90
51950;DHT22;37974;53.218;6.640;2023-03-23T10:52:54;13.10;99.90
51950;DHT22;37974;53.218;6.640;2023-03-23T10:55:24;13.10;99.90
51950;DHT22;37974;53.218;6.640;2023-03-23T10:58:04;13.30;99.90
51950;DHT22;37974;53.218;6.640;2023-03-23T11:00:31;13.60;99.90
51950;DHT22;37974;53.218;6.640;2023-03-23T11:03:18;13.80;99.90
51950;DHT22;37974;53.218;6.640;2023-03-23T11:05:54;14.00;99.90
51950;DHT22;37974;53.218;6.640;2023-03-23T11:08:24;14.20;99.90
51950;DHT22;37974;53.218;6.640;2023-03-23T11:10:55;14.40;99.90
51950;DHT22;37974;53.218;6.640;2023-03-23T11:13:23;14.50;99.90
51950;DHT22;37974;53.218;6.640;2023-03-23T11:15:53;14.50;99.90
51950;DHT22;37974;53.218;6.640;2023-03-23T11:18:20;14.30;99.90
51950;DHT22;37974;53.218;6.640;2023-03-23T11:20:49;14.30;99.90
51950;DHT22;37974;53.218;6.640;2023-03-23T11:23:27;14.40;99.90
51950;DHT22;37974;53.218;6.640;2023-03-23T11:25:56;14.40;99.90
51950;DHT22;37974;53.218;6.640;2023-03-23T11:28:27;14.40;99.90
51950;DHT22;37974;53.218;6.640;2023-03-23T11:30:55;14.30;99.90
51950;DHT22;37974;53.218;6.640;2023-03-23T11:33:21;14.50;99.90
51950;DHT22;37974;53.218;6.640;2023-03-23T11:35:52;14.70;99.90
51950;DHT22;37974;53.218;6.640;2023-03-23T11:38:20;14.90;99.90
51950;DHT22;37974;53.218;6.640;2023-03-23T11:40:49;15.00;99.90
51950;DHT22;37974;53.218;6.640;2023-03-23T11:43:20;15.00;99.90
51950;DHT22;37974;53.218;6.640;2023-03-23T11:46:07;15.00;99.90
51950;DHT22;37974;53.218;6.640;2023-03-23T11:48:47;14.80;99.90
51950;DHT22;37974;53.218;6.640;2023-03-23T11:51:24;14.70;99.90
51950;DHT22;37974;53.218;6.640;2023-03-23T11:56:33;14.70;99.90
51950;DHT22;37974;53.218;6.640;2023-03-23T11:58:59;14.70;99.90
51950;DHT22;37974;53.218;6.640;2023-03-23T12:09:14;14.80;99.90
51950;DHT22;37974;53.218;6.640;2023-03-23T12:17:00;14.80;99.90
51950;DHT22;37974;53.218;6.640;2023-03-23T12:19:38;14.60;99.90
51950;DHT22;37974;53.218;6.640;2023-03-23T12:22:31;14.60;99.90
51950;DHT22;37974;53.218;6.640;2023-03-23T12:32:56;14.60;99.90
51950;DHT22;37974;53.218;6.640;2023-03-23T12:41:12;14.70;99.90
51950;DHT22;37974;53.218;6.640;2023-03-23T12:43:50;14.60;99.90
51950;DHT22;37974;53.218;6.640;2023-03-23T12:51:45;14.20;99.90
51950;DHT22;37974;53.218;6.640;2023-03-23T12:54:34;14.20;99.90
51950;DHT22;37974;53.218;6.640;2023-03-23T12:57:10;14.10;99.90
51950;DHT22;37974;53.218;6.640;2023-03-23T13:02:23;14.20;99.90
51950;DHT22;37974;53.218;6.640;2023-03-23T13:05:05;14.40;99.90
51950;DHT22;37974;53.218;6.640;2023-03-23T13:07:37;14.40;99.90
51950;DHT22;37974;53.218;6.640;2023-03-23T13:10:17;14.30;99.90
51950;DHT22;37974;53.218;6.640;2023-03-23T13:12:46;14.40;99.90
51950;DHT22;37974;53.218;6.640;2023-03-23T13:15:25;14.50;99.90
51950;DHT22;37974;53.218;6.640;2023-03-23T13:20:59;14.60;99.90
51950;DHT22;37974;53.218;6.640;2023-03-23T13:23:31;14.60;99.90
51950;DHT22;37974;53.218;6.640;2023-03-23T13:28:28;14.70;99.90
51950;DHT22;37974;53.218;6.640;2023-03-23T13:31:00;14.60;99.90
51950;DHT22;37974;53.218;6.640;2023-03-23T13:33:31;14.40;99.90
51950;DHT22;37974;53.218;6.640;2023-03-23T13:36:08;14.30;99.90
51950;DHT22;37974;53.218;6.640;2023-03-23T13:38:36;14.20;99.90
51950;DHT22;37974;53.218;6.640;2023-03-23T13:41:10;14.20;99.90
51950;DHT22;37974;53.218;6.640;2023-03-23T13:43:37;14.20;99.90
51950;DHT22;37974;53.218;6.640;2023-03-23T13:46:11;14.30;99.90
51950;DHT22;37974;53.218;6.640;2023-03-23T13:48:44;14.30;99.90
51950;DHT22;37974;53.218;6.640;2023-03-23T13:54:13;14.20;99.90
51950;DHT22;37974;53.218;6.640;2023-03-23T13:56:42;14.20;99.90
51950;DHT22;37974;53.218;6.640;2023-03-23T13:59:27;14.30;99.90
51950;DHT22;37974;53.218;6.640;2023-03-23T14:01:55;14.40;99.90
51950;DHT22;37974;53.218;6.640;2023-03-23T14:04:23;14.40;99.90
51950;DHT22;37974;53.218;6.640;2023-03-23T14:06:57;14.40;99.90
51950;DHT22;37974;53.218;6.640;2023-03-23T14:09:39;14.40;99.90
51950;DHT22;37974;53.218;6.640;2023-03-23T14:12:15;14.70;99.90
51950;DHT22;37974;53.218;6.640;2023-03-23T14:14:46;14.80;99.90
51950;DHT22;37974;53.218;6.640;2023-03-23T14:17:23;14.90;99.90
51950;DHT22;37974;53.218;6.640;2023-03-23T14:19:52;14.90;99.90
51950;DHT22;37974;53.218;6.640;2023-03-23T14:22:25;15.00;99.90
51950;DHT22;37974;53.218;6.640;2023-03-23T14:24:53;15.00;99.90
51950;DHT22;37974;53.218;6.640;2023-03-23T14:27:24;15.00;99.90
51950;DHT22;37974;53.218;6.640;2023-03-23T14:29:58;15.10;99.90
51950;DHT22;37974;53.218;6.640;2023-03-23T14:32:27;15.00;99.90
51950;DHT22;37974;53.218;6.640;2023-03-23T14:34:53;14.90;99.90
51950;DHT22;37974;53.218;6.640;2023-03-23T14:37:21;14.90;99.90
51950;DHT22;37974;53.218;6.640;2023-03-23T14:39:49;14.90;99.90
51950;DHT22;37974;53.218;6.640;2023-03-23T14:42:26;15.00;99.90
51950;DHT22;37974;53.218;6.640;2023-03-23T14:44:52;15.10;99.90
51950;DHT22;37974;53.218;6.640;2023-03-23T14:49:47;15.00;99.90
51950;DHT22;37974;53.218;6.640;2023-03-23T14:52:17;14.90;99.90
51950;DHT22;37974;53.218;6.640;2023-03-23T14:54:45;14.80;99.90
51950;DHT22;37974;53.218;6.640;2023-03-23T14:57:15;14.80;99.90
51950;DHT22;37974;53.218;6.640;2023-03-23T14:59:42;14.70;99.90
51950;DHT22;37974;53.218;6.640;2023-03-23T15:04:43;14.50;99.90
51950;DHT22;37974;53.218;6.640;2023-03-23T15:07:12;14.50;99.90
51950;DHT22;37974;53.218;6.640;2023-03-23T15:09:42;14.40;99.90
51950;DHT22;37974;53.218;6.640;2023-03-23T15:12:18;14.40;99.90
51950;DHT22;37974;53.218;6.640;2023-03-23T15:14:48;14.30;99.90
51950;DHT22;37974;53.218;6.640;2023-03-23T15:17:21;14.30;99.90
51950;DHT22;37974;53.218;6.640;2023-03-23T15:19:48;14.30;99.90
51950;DHT22;37974;53.218;6.640;2023-03-23T15:22:19;14.40;99.90
51950;DHT22;37974;53.218;6.640;2023-03-23T15:24:45;14.40;99.90
51950;DHT22;37974;53.218;6.640;2023-03-23T15:27:26;14.40;99.90
51950;DHT22;37974;53.218;6.640;2023-03-23T15:29:55;14.30;99.90
51950;DHT22;37974;53.218;6.640;2023-03-23T15:32:31;14.30;99.90
51950;DHT22;37974;53.218;6.640;2023-03-23T15:34:58;14.30;99.90
51950;DHT22;37974;53.218;6.640;2023-03-23T15:37:30;14.20;99.90
51950;DHT22;37974;53.218;6.640;2023-03-23T15:39:58;14.20;99.90
51950;DHT22;37974;53.218;6.640;2023-03-23T15:42:28;14.10;99.90
51950;DHT22;37974;53.218;6.640;2023-03-23T15:47:22;14.00;99.90
51950;DHT22;37974;53.218;6.640;2023-03-23T15:50:01;14.00;99.90
51950;DHT22;37974;53.218;6.640;2023-03-23T15:52:28;13.90;99.90
51950;DHT22;37974;53.218;6.640;2023-03-23T15:54:54;13.90;99.90
51950;DHT22;37974;53.218;6.640;2023-03-23T15:57:20;13.90;99.90
51950;DHT22;37974;53.218;6.640;2023-03-23T15:59:45;13.80;99.90
51950;DHT22;37974;53.218;6.640;2023-03-23T16:02:20;13.80;99.90
51950;DHT22;37974;53.218;6.640;2023-03-23T16:04:47;13.70;99.90
51950;DHT22;37974;53.218;6.640;2023-03-23T16:07:13;13.60;99.90
51950;DHT22;37974;53.218;6.640;2023-03-23T16:09:39;13.60;99.90
51950;DHT22;37974;53.218;6.640;2023-03-23T16:12:11;13.50;99.90
51950;DHT22;37974;53.218;6.640;2023-03-23T16:14:39;13.40;99.90
51950;DHT22;37974;53.218;6.640;2023-03-23T16:17:05;13.40;99.90
51950;DHT22;37974;53.218;6.640;2023-03-23T16:19:31;13.40;99.90
51950;DHT22;37974;53.218;6.640;2023-03-23T16:21:57;13.40;99.90
51950;DHT22;37974;53.218;6.640;2023-03-23T16:24:23;13.20;99.90
51950;DHT22;37974;53.218;6.640;2023-03-23T16:26:49;13.10;99.90
51950;DHT22;37974;53.218;6.640;2023-03-23T16:29:16;13.10;99.90
51950;DHT22;37974;53.218;6.640;2023-03-23T16:31:42;13.10;99.90
51950;DHT22;37974;53.218;6.640;2023-03-23T16:34:08;13.10;99.90
51950;DHT22;37974;53.218;6.640;2023-03-23T16:36:34;13.10;99.90
51950;DHT22;37974;53.218;6.640;2023-03-23T16:39:00;13.10;99.90
51950;DHT22;37974;53.218;6.640;2023-03-23T16:41:26;13.00;99.90
51950;DHT22;37974;53.218;6.640;2023-03-23T16:43:51;13.10;99.90
51950;DHT22;37974;53.218;6.640;2023-03-23T16:46:17;13.10;99.90
51950;DHT22;37974;53.218;6.640;2023-03-23T16:48:43;13.00;99.90
51950;DHT22;37974;53.218;6.640;2023-03-23T16:51:09;12.90;99.90
51950;DHT22;37974;53.218;6.640;2023-03-23T16:53:34;12.90;99.90
51950;DHT22;37974;53.218;6.640;2023-03-23T16:56:02;12.80;99.90
51950;DHT22;37974;53.218;6.640;2023-03-23T16:58:27;12.80;99.90
51950;DHT22;37974;53.218;6.640;2023-03-23T17:00:53;12.80;99.90
51950;DHT22;37974;53.218;6.640;2023-03-23T17:03:20;12.80;99.90
51950;DHT22;37974;53.218;6.640;2023-03-23T17:05:48;12.70;99.90
51950;DHT22;37974;53.218;6.640;2023-03-23T17:08:15;12.70;99.90
51950;DHT22;37974;53.218;6.640;2023-03-23T17:10:41;12.60;99.90
51950;DHT22;37974;53.218;6.640;2023-03-23T17:13:16;12.60;99.90